Time;durP1;ratioP1;P1;durP2;ratioP2;P2;SDS_P1;SDS_P2;PMS_P1;PMS_P2;Temp;Humidity;BMP_temperature;BMP_pressure;BME280_temperature;BME280_humidity;BME280_pressure;Samples;Min_cycle;Max_cycle;Signal;HPM_P1;HPM_P2
2022/07/11 03:00:31;;;;;;;13.15;4.93;;;15.50;99.90;;;;;;6197574;22;20024;-84
2022/07/11 03:02:57;;;;;;;10.63;4.80;;;15.50;99.90;;;;;;6281813;22;20015;-84
2022/07/11 03:05:23;;;;;;;13.80;4.95;;;15.50;99.90;;;;;;6280874;22;20023;-82
2022/07/11 03:07:49;;;;;;;15.00;5.40;;;15.50;99.90;;;;;;6282518;22;20051;-83
2022/07/11 03:10:15;;;;;;;11.82;5.35;;;15.50;99.90;;;;;;6280715;22;20015;-84
2022/07/11 03:12:41;;;;;;;17.30;5.55;;;15.50;99.90;;;;;;6251251;22;20015;-82
2022/07/11 03:15:08;;;;;;;11.20;5.53;;;15.40;99.90;;;;;;6250719;22;20030;-83
2022/07/11 03:17:35;;;;;;;15.45;5.00;;;15.40;99.90;;;;;;6250860;22;20096;-83
2022/07/11 03:20:02;;;;;;;12.98;4.85;;;15.50;99.90;;;;;;6251105;22;20030;-83
2022/07/11 03:22:27;;;;;;;15.88;5.97;;;15.50;99.90;;;;;;6250640;22;20086;-83
2022/07/11 03:24:53;;;;;;;15.57;6.20;;;15.50;99.90;;;;;;6250974;22;20039;-84
2022/07/11 03:27:19;;;;;;;13.05;5.68;;;15.40;99.90;;;;;;6250640;22;20035;-84
2022/07/11 03:29:44;;;;;;;18.98;5.32;;;15.40;99.90;;;;;;6250727;22;20022;-83
2022/07/11 03:32:10;;;;;;;14.52;5.57;;;15.40;99.90;;;;;;6278030;22;20437;-82
2022/07/11 03:34:36;;;;;;;9.85;5.22;;;15.40;99.90;;;;;;6225573;22;20085;-85
2022/07/11 03:37:03;;;;;;;15.45;6.07;;;15.50;99.90;;;;;;6278396;22;20008;-83
2022/07/11 03:39:28;;;;;;;8.77;4.78;;;15.50;99.90;;;;;;6251063;22;20015;-85
2022/07/11 03:41:54;;;;;;;10.32;4.57;;;15.40;99.90;;;;;;6250785;22;20012;-85
2022/07/11 03:44:20;;;;;;;11.77;4.68;;;15.40;99.90;;;;;;6251771;22;20080;-85
2022/07/11 03:46:46;;;;;;;11.93;5.43;;;15.40;99.90;;;;;;6249985;22;20341;-85
2022/07/11 03:49:11;;;;;;;12.25;5.30;;;15.40;99.90;;;;;;6250827;22;20014;-83
2022/07/11 03:51:37;;;;;;;8.15;4.93;;;15.40;99.90;;;;;;6250316;22;20019;-81
2022/07/11 03:54:04;;;;;;;8.05;3.97;;;15.40;99.90;;;;;;6278577;22;20069;-83
2022/07/11 03:56:29;;;;;;;8.48;4.68;;;15.40;99.90;;;;;;6251159;22;20016;-83
2022/07/11 03:58:55;;;;;;;11.15;4.70;;;15.40;99.90;;;;;;6250858;22;20460;-83
2022/07/11 04:01:21;;;;;;;7.57;4.20;;;15.50;99.90;;;;;;6277908;22;20043;-83
2022/07/11 04:03:47;;;;;;;7.50;3.90;;;15.40;99.90;;;;;;6251049;22;20012;-84
2022/07/11 04:06:14;;;;;;;8.68;4.28;;;15.50;99.90;;;;;;6250926;22;20083;-83
2022/07/11 04:08:39;;;;;;;9.63;3.97;;;15.50;99.90;;;;;;6251143;22;20011;-84
2022/07/11 04:11:05;;;;;;;7.13;3.20;;;15.50;99.90;;;;;;6250487;22;20089;-83
2022/07/11 04:13:31;;;;;;;7.60;3.55;;;15.50;99.90;;;;;;6250177;22;20022;-82
2022/07/11 04:15:57;;;;;;;7.00;3.00;;;15.40;99.90;;;;;;6278137;22;20029;-82
2022/07/11 04:18:22;;;;;;;6.38;2.78;;;15.40;99.90;;;;;;6250630;22;20015;-83
2022/07/11 04:20:49;;;;;;;5.18;2.88;;;15.40;99.90;;;;;;6277605;22;20012;-83
2022/07/11 04:23:15;;;;;;;4.95;2.30;;;15.40;99.90;;;;;;6250902;22;20107;-83
2022/07/11 04:25:41;;;;;;;3.88;2.38;;;15.40;99.90;;;;;;6250424;22;20052;-83
2022/07/11 04:28:07;;;;;;;6.15;2.47;;;15.40;99.90;;;;;;6250922;22;20014;-84
2022/07/11 04:30:33;;;;;;;5.65;2.63;;;15.40;99.90;;;;;;6277585;22;20018;-82
2022/07/11 04:32:59;;;;;;;4.97;2.13;;;15.40;99.90;;;;;;6277880;22;20068;-83
2022/07/11 04:35:26;;;;;;;5.72;2.30;;;15.40;99.90;;;;;;6277464;22;20023;-81
2022/07/11 04:37:52;;;;;;;5.68;2.22;;;15.50;99.90;;;;;;6250352;22;20012;-82
2022/07/11 04:40:18;;;;;;;3.90;2.00;;;15.50;99.90;;;;;;6250289;22;20042;-82
2022/07/11 04:42:43;;;;;;;6.68;2.08;;;15.50;99.90;;;;;;6278028;22;20083;-83
2022/07/11 04:45:10;;;;;;;5.25;1.80;;;15.50;99.90;;;;;;6278553;22;20014;-83
2022/07/11 04:47:36;;;;;;;3.25;1.77;;;15.50;99.90;;;;;;6225209;22;20015;-82
2022/07/11 04:50:02;;;;;;;4.50;1.50;;;15.50;99.90;;;;;;6225288;22;20037;-83
2022/07/11 04:52:27;;;;;;;5.53;2.03;;;15.50;99.90;;;;;;6250317;22;20065;-83
2022/07/11 04:54:54;;;;;;;4.25;1.60;;;15.50;99.90;;;;;;6250868;22;20375;-83
2022/07/11 04:57:20;;;;;;;5.32;1.88;;;15.50;99.90;;;;;;6249898;22;20376;-83
2022/07/11 04:59:46;;;;;;;4.22;1.77;;;15.50;99.90;;;;;;6249990;22;20015;-84
2022/07/11 05:02:11;;;;;;;2.65;1.40;;;15.50;99.90;;;;;;6250229;22;20087;-83
2022/07/11 05:04:37;;;;;;;2.92;1.20;;;15.50;99.90;;;;;;6277037;22;20012;-83
2022/07/11 05:07:03;;;;;;;3.50;1.70;;;15.40;99.90;;;;;;6277786;22;20026;-81
2022/07/11 05:09:29;;;;;;;6.20;2.10;;;15.40;99.90;;;;;;6250588;22;20058;-84
2022/07/11 05:11:54;;;;;;;3.95;1.70;;;15.50;99.90;;;;;;6224809;22;20425;-85
2022/07/11 05:14:20;;;;;;;3.63;1.77;;;15.50;99.90;;;;;;6250138;22;20042;-83
2022/07/11 05:16:45;;;;;;;4.50;1.75;;;15.50;99.90;;;;;;6250243;22;20031;-81
2022/07/11 05:19:11;;;;;;;4.00;1.60;;;15.60;99.90;;;;;;6224491;22;20015;-83
2022/07/11 05:21:37;;;;;;;5.13;2.45;;;15.60;99.90;;;;;;6254945;22;20078;-80
2022/07/11 05:24:03;;;;;;;4.15;2.10;;;15.60;99.90;;;;;;6260749;22;20046;-81
2022/07/11 05:26:29;;;;;;;5.63;2.00;;;15.60;99.90;;;;;;6231167;22;20008;-83
2022/07/11 05:28:54;;;;;;;5.25;1.45;;;15.60;99.90;;;;;;6252988;22;20073;-83
2022/07/11 05:31:20;;;;;;;3.95;1.70;;;15.60;99.90;;;;;;6252074;22;20015;-84
2022/07/11 05:33:46;;;;;;;5.45;1.80;;;15.60;99.90;;;;;;6279787;22;20008;-83
2022/07/11 05:36:12;;;;;;;4.03;1.45;;;15.60;99.90;;;;;;6279107;22;20518;-83
2022/07/11 05:38:38;;;;;;;4.78;1.80;;;15.60;99.90;;;;;;6252315;22;20333;-83
2022/07/11 05:41:04;;;;;;;4.80;1.60;;;15.60;99.90;;;;;;6251050;22;20067;-82
2022/07/11 05:43:30;;;;;;;2.95;1.45;;;15.60;99.90;;;;;;6251817;22;20070;-84
2022/07/11 05:45:56;;;;;;;5.68;2.00;;;15.60;99.90;;;;;;6251666;22;20441;-83
2022/07/11 05:48:21;;;;;;;4.70;1.40;;;15.60;99.90;;;;;;6251764;22;20015;-84
2022/07/11 05:50:47;;;;;;;3.67;1.33;;;15.70;99.90;;;;;;6251824;22;20008;-84
2022/07/11 05:53:13;;;;;;;2.50;1.20;;;15.60;99.90;;;;;;6251953;22;20069;-83
2022/07/11 05:55:38;;;;;;;3.15;1.25;;;15.60;99.90;;;;;;6279250;22;20425;-83
2022/07/11 05:58:04;;;;;;;3.97;1.27;;;15.60;99.90;;;;;;6278514;22;20091;-83
2022/07/11 06:00:30;;;;;;;5.75;1.30;;;15.70;99.90;;;;;;6251745;22;20068;-84
2022/07/11 06:02:55;;;;;;;3.60;1.20;;;15.80;99.90;;;;;;6251590;22;20024;-83
2022/07/11 06:05:22;;;;;;;3.75;1.42;;;15.80;99.90;;;;;;6251710;22;20008;-82
2022/07/11 06:10:32;;;;;;;2.83;1.10;;;15.90;99.90;;;;;;6251452;22;20019;-82
2022/07/11 06:12:58;;;;;;;2.58;1.10;;;15.90;99.90;;;;;;6226345;22;20070;-83
2022/07/11 06:15:23;;;;;;;3.83;1.20;;;16.00;99.90;;;;;;6252617;22;20011;-83
2022/07/11 06:17:49;;;;;;;3.35;1.08;;;16.00;99.90;;;;;;6251625;22;20090;-84
2022/07/11 06:20:15;;;;;;;3.42;1.55;;;16.00;99.90;;;;;;6251304;22;20016;-83
2022/07/11 06:22:41;;;;;;;2.80;1.08;;;16.00;99.90;;;;;;6251443;22;20019;-84
2022/07/11 06:25:08;;;;;;;2.83;0.85;;;16.00;99.90;;;;;;6278909;22;20015;-82
2022/07/11 06:27:35;;;;;;;4.05;0.95;;;16.00;99.90;;;;;;6251765;22;20353;-84
2022/07/11 06:30:01;;;;;;;2.65;1.10;;;16.10;99.90;;;;;;6251779;22;20047;-82
2022/07/11 06:32:26;;;;;;;1.90;0.70;;;16.10;99.90;;;;;;6250730;22;20437;-84
2022/07/11 06:34:52;;;;;;;3.60;0.70;;;16.10;99.90;;;;;;6251673;22;20023;-85
2022/07/11 06:37:18;;;;;;;1.83;0.60;;;16.10;99.90;;;;;;6251339;22;20020;-83
2022/07/11 06:39:44;;;;;;;2.95;0.50;;;16.10;99.90;;;;;;6278729;22;20023;-85
2022/07/11 06:42:10;;;;;;;2.05;0.70;;;16.10;99.90;;;;;;6251668;22;20129;-84
2022/07/11 06:44:35;;;;;;;1.13;0.60;;;16.20;99.90;;;;;;6251598;22;20011;-85
2022/07/11 06:47:01;;;;;;;2.90;0.70;;;16.20;99.90;;;;;;6252039;22;20007;-85
2022/07/11 06:49:27;;;;;;;1.50;0.70;;;16.20;99.90;;;;;;6278739;22;20078;-86
2022/07/11 06:51:52;;;;;;;2.83;0.90;;;16.20;99.90;;;;;;6226989;22;20137;-82
2022/07/11 06:54:18;;;;;;;2.00;0.80;;;16.30;99.90;;;;;;6250816;22;20327;-82
2022/07/11 06:56:43;;;;;;;2.10;0.88;;;16.30;99.90;;;;;;6252342;22;20314;-83
2022/07/11 06:59:09;;;;;;;2.47;0.90;;;16.40;99.90;;;;;;6251167;22;20385;-83
2022/07/11 07:01:35;;;;;;;2.72;1.00;;;16.40;99.90;;;;;;6225771;22;20008;-82
2022/07/11 07:04:00;;;;;;;2.30;0.85;;;16.40;99.90;;;;;;6251428;22;20015;-83
2022/07/11 07:06:26;;;;;;;3.78;0.95;;;16.40;99.90;;;;;;6251111;22;20411;-83
2022/07/11 07:08:52;;;;;;;3.17;1.10;;;16.40;99.90;;;;;;6251073;22;20019;-82
2022/07/11 07:11:18;;;;;;;2.40;0.82;;;16.40;99.90;;;;;;6251164;22;20449;-82
2022/07/11 07:13:45;;;;;;;4.18;0.93;;;16.40;99.90;;;;;;6225409;22;20467;-80
2022/07/11 07:16:11;;;;;;;2.97;0.90;;;16.40;99.90;;;;;;6277817;22;20150;-84
2022/07/11 07:18:40;;;;;;;1.73;0.88;;;16.30;99.90;;;;;;6250847;22;20348;-82
2022/07/11 07:21:06;;;;;;;2.10;0.63;;;16.40;99.90;;;;;;6278062;22;20012;-83
2022/07/11 07:23:32;;;;;;;2.50;0.80;;;16.30;99.90;;;;;;6278294;22;20433;-82
2022/07/11 07:25:58;;;;;;;4.00;0.80;;;16.40;99.90;;;;;;6250944;22;20012;-83
2022/07/11 07:28:23;;;;;;;1.95;0.65;;;16.50;99.90;;;;;;6250566;22;20018;-83
2022/07/11 07:30:49;;;;;;;3.55;0.80;;;16.50;99.90;;;;;;6250776;22;20012;-84
2022/07/11 07:33:15;;;;;;;1.85;0.80;;;16.60;99.90;;;;;;6278389;22;20333;-83
2022/07/11 07:35:41;;;;;;;2.80;0.90;;;16.60;99.90;;;;;;6252027;22;20441;-84
2022/07/11 07:38:07;;;;;;;1.67;0.70;;;16.70;99.90;;;;;;6250302;22;20337;-82
2022/07/11 07:40:33;;;;;;;1.13;0.50;;;16.70;99.90;;;;;;6250787;22;20018;-83
2022/07/11 07:42:59;;;;;;;1.42;0.43;;;16.60;99.90;;;;;;6250610;22;20016;-84
2022/07/11 07:45:24;;;;;;;2.17;0.50;;;16.60;99.90;;;;;;6251743;22;20413;-85
2022/07/11 07:47:50;;;;;;;1.75;0.60;;;16.60;99.90;;;;;;6250100;22;20014;-85
2022/07/11 07:50:16;;;;;;;2.05;0.50;;;16.50;99.90;;;;;;6225691;22;20011;-84
2022/07/11 07:52:41;;;;;;;2.70;0.70;;;16.60;99.90;;;;;;6250981;22;20023;-84
2022/07/11 07:55:08;;;;;;;1.45;0.70;;;16.70;99.90;;;;;;6226816;22;20016;-85
2022/07/11 07:57:34;;;;;;;1.40;0.70;;;16.70;99.90;;;;;;6277422;22;20041;-82
2022/07/11 08:02:50;;;;;;;1.52;0.55;;;17.00;99.90;;;;;;6250298;22;20033;-83
2022/07/11 08:05:17;;;;;;;1.83;0.88;;;17.10;99.90;;;;;;6250280;22;20019;-84
2022/07/11 08:07:43;;;;;;;1.05;0.57;;;17.10;99.90;;;;;;6249927;22;20007;-85
2022/07/11 08:10:09;;;;;;;1.13;0.70;;;17.10;99.90;;;;;;6250344;22;20066;-82
2022/07/11 08:12:35;;;;;;;1.15;0.60;;;17.20;99.90;;;;;;6277275;22;20086;-83
2022/07/11 08:15:01;;;;;;;1.52;0.50;;;17.30;99.90;;;;;;6249881;22;20015;-83
2022/07/11 08:17:26;;;;;;;1.15;0.60;;;17.30;99.90;;;;;;6277543;22;20008;-83
2022/07/11 08:19:52;;;;;;;0.90;0.50;;;17.40;99.90;;;;;;6250165;22;20341;-82
2022/07/11 08:22:18;;;;;;;0.80;0.38;;;17.50;99.90;;;;;;6277284;22;20012;-83
2022/07/11 08:24:44;;;;;;;1.60;0.50;;;17.50;99.90;;;;;;6250290;22;20015;-82
2022/07/11 08:27:09;;;;;;;0.80;0.30;;;17.40;99.90;;;;;;6251072;22;20082;-82
2022/07/11 08:29:35;;;;;;;2.03;0.40;;;17.40;99.90;;;;;;6249909;22;20515;-84
2022/07/11 08:32:01;;;;;;;2.17;0.40;;;17.40;99.90;;;;;;6250042;22;20020;-83
2022/07/11 08:34:26;;;;;;;0.73;0.32;;;17.40;99.90;;;;;;6277349;22;20007;-84
2022/07/11 08:36:52;;;;;;;1.13;0.40;;;17.40;99.90;;;;;;6250522;22;20314;-82
2022/07/11 08:39:17;;;;;;;1.45;0.40;;;17.40;99.90;;;;;;6250342;22;20085;-82
2022/07/11 08:41:44;;;;;;;1.70;0.40;;;17.40;99.90;;;;;;6250053;22;20337;-82
2022/07/11 08:44:14;;;;;;;0.88;0.40;;;17.50;99.90;;;;;;6249895;22;20012;-82
2022/07/11 08:46:41;;;;;;;1.38;0.40;;;17.70;99.90;;;;;;6249861;22;20046;-83
2022/07/11 08:49:07;;;;;;;2.67;0.70;;;17.80;99.90;;;;;;6249963;22;20535;-82
2022/07/11 08:51:36;;;;;;;0.98;0.43;;;17.70;99.90;;;;;;6250365;22;20015;-82
2022/07/11 08:54:02;;;;;;;0.88;0.40;;;17.70;99.90;;;;;;6278116;22;20010;-83
2022/07/11 08:56:29;;;;;;;0.47;0.30;;;17.70;99.90;;;;;;6250730;22;20036;-83
2022/07/11 08:58:57;;;;;;;1.15;0.43;;;17.60;99.90;;;;;;6251200;22;20054;-83
2022/07/11 09:01:31;;;;;;;2.28;0.50;;;17.70;99.90;;;;;;6252783;22;20022;-82
2022/07/11 09:03:58;;;;;;;2.40;0.73;;;17.70;99.90;;;;;;6228693;22;20008;-82
2022/07/11 09:06:24;;;;;;;1.10;0.30;;;17.80;99.90;;;;;;6252985;22;20016;-82
2022/07/11 09:08:50;;;;;;;0.60;0.40;;;17.90;99.90;;;;;;6253284;22;20086;-82
2022/07/11 09:11:15;;;;;;;0.52;0.40;;;18.00;99.90;;;;;;6252651;22;20023;-82
2022/07/11 09:13:41;;;;;;;0.65;0.30;;;18.00;99.90;;;;;;6253816;22;20019;-81
2022/07/11 09:16:08;;;;;;;0.50;0.30;;;18.00;99.90;;;;;;6280585;22;20012;-84
2022/07/11 09:18:38;;;;;;;1.67;0.40;;;17.90;99.90;;;;;;6227563;22;20050;-81
2022/07/11 09:26:38;;;;;;;;;;;17.70;99.90;;;;;;6253537;22;20015;-83
2022/07/11 09:29:06;;;;;;;1.00;0.28;;;17.60;99.90;;;;;;6253558;22;20308;-85
2022/07/11 09:31:33;;;;;;;2.30;0.40;;;17.70;99.90;;;;;;6253294;22;20020;-84
2022/07/11 09:34:10;;;;;;;0.50;0.30;;;18.00;99.90;;;;;;6253362;22;20022;-81
2022/07/11 09:36:41;;;;;;;0.85;0.40;;;18.10;99.90;;;;;;6280527;22;20106;-82
2022/07/11 09:39:10;;;;;;;1.40;0.40;;;18.30;99.90;;;;;;6253205;22;20345;-81
2022/07/11 09:41:37;;;;;;;0.32;0.30;;;18.30;99.90;;;;;;6227462;22;20022;-82
2022/07/11 09:44:12;;;;;;;0.38;0.30;;;18.30;99.90;;;;;;6280624;22;20074;-84
2022/07/11 09:46:38;;;;;;;1.30;0.40;;;18.30;99.90;;;;;;6253582;22;20010;-84
2022/07/11 09:49:05;;;;;;;1.65;0.40;;;18.30;99.90;;;;;;6253720;22;20007;-85
2022/07/11 09:51:33;;;;;;;0.60;0.30;;;18.30;99.90;;;;;;6253028;22;20016;-86
2022/07/11 09:53:59;;;;;;;1.02;0.30;;;18.20;99.90;;;;;;6253513;22;20341;-85
2022/07/11 09:56:26;;;;;;;0.80;0.35;;;18.10;99.90;;;;;;6253717;22;20022;-83
2022/07/11 09:59:03;;;;;;;1.00;0.35;;;18.20;99.90;;;;;;6252992;22;20011;-85
2022/07/11 10:01:29;;;;;;;1.35;0.40;;;18.10;99.90;;;;;;6226995;22;20046;-85
2022/07/11 10:03:55;;;;;;;1.95;0.45;;;18.20;99.90;;;;;;6253151;22;20019;-84
2022/07/11 10:06:22;;;;;;;0.52;0.30;;;18.20;99.90;;;;;;6253401;22;20007;-86
2022/07/11 10:08:49;;;;;;;1.13;0.40;;;18.30;99.90;;;;;;6254617;22;20012;-85
2022/07/11 10:11:15;;;;;;;1.25;0.55;;;18.40;99.90;;;;;;6251927;22;20073;-84
2022/07/11 10:13:41;;;;;;;1.67;0.60;;;18.50;99.90;;;;;;6253861;22;20338;-84
2022/07/11 10:16:21;;;;;;;0.68;0.40;;;18.50;99.90;;;;;;6253114;22;19999;-84
2022/07/11 10:19:03;;;;;;;0.77;0.43;;;18.60;99.90;;;;;;6253236;22;20341;-84
2022/07/11 10:21:54;;;;;;;0.82;0.30;;;18.60;99.90;;;;;;6252327;22;20062;-83
2022/07/11 10:24:44;;;;;;;0.70;0.60;;;18.70;99.90;;;;;;6280539;22;20336;-83
2022/07/11 10:27:56;;;;;;;3.67;0.40;;;18.60;99.90;;;;;;6252863;22;20035;-85
2022/07/11 10:30:44;;;;;;;1.42;0.35;;;18.60;99.90;;;;;;6268782;22;20012;-84
2022/07/11 10:33:10;;;;;;;0.80;0.30;;;18.60;99.90;;;;;;6252412;22;20018;-83
2022/07/11 10:35:40;;;;;;;0.95;0.32;;;18.70;99.90;;;;;;6279618;22;20015;-83
2022/07/11 10:38:06;;;;;;;0.43;0.22;;;18.70;99.90;;;;;;6252822;22;20016;-84
2022/07/11 10:40:50;;;;;;;1.10;0.30;;;18.70;99.90;;;;;;6252608;22;20015;-84
2022/07/11 10:43:33;;;;;;;1.75;0.30;;;18.80;99.90;;;;;;6251592;22;20026;-82
2022/07/11 10:46:11;;;;;;;0.47;0.30;;;18.80;99.90;;;;;;6225896;22;20433;-83
2022/07/11 10:49:20;;;;;;;1.65;0.30;;;18.90;99.90;;;;;;6251376;22;20087;-82
2022/07/11 10:51:49;;;;;;;0.52;0.35;;;18.90;99.90;;;;;;6226369;22;20019;-84
2022/07/11 10:54:42;;;;;;;1.40;0.30;;;19.00;99.90;;;;;;6226426;22;20456;-83
2022/07/11 10:57:40;;;;;;;1.05;0.32;;;19.10;99.90;;;;;;6251889;22;20016;-83
2022/07/11 11:00:10;;;;;;;0.47;0.30;;;19.10;99.90;;;;;;6277829;22;20035;-84
2022/07/11 11:06:57;;;;;;;0.55;0.30;;;19.30;99.90;;;;;;6154732;23;20036;-84
2022/07/11 11:09:38;;;;;;;0.63;0.25;;;19.40;99.90;;;;;;6189903;22;20016;-89
2022/07/11 11:12:07;;;;;;;1.23;0.30;;;19.40;99.90;;;;;;6233005;23;20065;-86
2022/07/11 11:14:33;;;;;;;1.27;0.30;;;19.40;99.90;;;;;;6253683;23;20506;-85
2022/07/11 11:17:36;;;;;;;0.40;0.22;;;19.40;99.90;;;;;;6269088;23;20015;-83
2022/07/11 11:20:06;;;;;;;0.30;0.30;;;19.40;99.90;;;;;;6287654;22;20019;-82
2022/07/11 11:22:33;;;;;;;1.05;0.40;;;19.40;99.90;;;;;;6247001;22;20106;-85
2022/07/11 11:24:59;;;;;;;1.30;0.30;;;19.40;99.90;;;;;;6247672;23;20067;-86
2022/07/11 11:27:26;;;;;;;0.65;0.40;;;19.40;99.90;;;;;;6248393;23;20091;-84
2022/07/11 11:29:54;;;;;;;0.45;0.32;;;19.40;99.90;;;;;;6247534;23;20099;-84
2022/07/11 11:32:22;;;;;;;0.65;0.30;;;19.40;99.90;;;;;;6222969;23;20020;-83
2022/07/11 11:34:48;;;;;;;0.40;0.22;;;19.50;99.90;;;;;;6248346;23;20020;-84
2022/07/11 11:37:17;;;;;;;0.47;0.25;;;19.40;99.90;;;;;;6247537;23;20437;-85
2022/07/11 11:39:43;;;;;;;0.70;0.30;;;19.40;99.90;;;;;;6247090;23;20012;-85
2022/07/11 11:42:12;;;;;;;0.75;0.40;;;19.50;99.90;;;;;;6247815;22;20012;-85
2022/07/11 11:44:53;;;;;;;0.82;0.40;;;19.40;99.90;;;;;;6246143;23;20020;-86
2022/07/11 11:47:19;;;;;;;0.85;0.38;;;19.50;99.90;;;;;;6248493;22;20008;-85
2022/07/11 11:49:46;;;;;;;1.45;0.50;;;19.50;99.90;;;;;;6246105;23;20018;-74
2022/07/11 11:52:12;;;;;;;0.65;0.43;;;19.50;99.90;;;;;;6247239;22;20135;-84
2022/07/11 11:54:39;;;;;;;0.93;0.40;;;19.50;99.90;;;;;;6245576;23;20438;-82
2022/07/11 11:57:12;;;;;;;0.73;0.40;;;19.50;99.90;;;;;;6245182;22;20008;-83
2022/07/11 11:59:40;;;;;;;1.65;0.45;;;19.50;99.90;;;;;;6245302;22;20016;-83
2022/07/11 12:02:06;;;;;;;1.27;0.60;;;19.50;99.90;;;;;;6245422;22;20008;-84
2022/07/11 12:04:33;;;;;;;1.08;0.60;;;19.60;99.90;;;;;;6245199;23;20024;-84
2022/07/11 12:07:01;;;;;;;0.82;0.50;;;19.60;99.90;;;;;;6245199;23;20020;-85
2022/07/11 12:09:46;;;;;;;0.77;0.45;;;19.70;99.90;;;;;;6220695;23;20008;-84
2022/07/11 12:14:56;;;;;;;0.70;0.40;;;19.70;99.90;;;;;;6248695;23;20027;-85
2022/07/11 12:17:29;;;;;;;2.85;0.52;;;19.70;99.90;;;;;;6245481;23;20020;-85
2022/07/11 12:19:55;;;;;;;1.63;0.60;;;19.70;99.90;;;;;;6246345;23;20056;-84
2022/07/11 12:22:21;;;;;;;1.13;0.60;;;19.60;99.90;;;;;;6246195;22;20450;-84
2022/07/11 12:24:49;;;;;;;2.55;0.75;;;19.60;99.90;;;;;;6246428;23;20018;-85
2022/07/11 12:27:23;;;;;;;1.38;0.50;;;19.60;99.90;;;;;;6246802;23;20426;-83
2022/07/11 12:29:51;;;;;;;2.80;0.68;;;19.70;99.90;;;;;;6221444;23;20008;-85
2022/07/11 12:32:22;;;;;;;1.05;0.55;;;19.70;99.90;;;;;;6249016;22;20015;-84
2022/07/11 12:34:49;;;;;;;1.42;0.70;;;19.70;99.90;;;;;;6246463;23;20047;-85
2022/07/11 12:37:21;;;;;;;0.95;0.60;;;19.70;99.90;;;;;;6247087;23;20044;-83
2022/07/11 12:39:53;;;;;;;1.13;0.60;;;19.70;99.90;;;;;;6246540;23;20438;-83
2022/07/11 12:42:28;;;;;;;1.88;0.60;;;19.70;99.90;;;;;;6246425;22;20091;-84
2022/07/11 12:45:07;;;;;;;1.60;0.70;;;19.70;99.90;;;;;;6246337;23;20016;-83
2022/07/11 12:47:39;;;;;;;1.60;0.50;;;19.70;99.90;;;;;;6245613;23;20013;-84
2022/07/11 12:50:17;;;;;;;1.60;0.60;;;19.60;99.90;;;;;;6245179;23;20086;-84
2022/07/11 12:52:46;;;;;;;1.05;0.60;;;19.60;99.90;;;;;;6245540;23;20460;-84
2022/07/11 12:55:31;;;;;;;1.73;0.50;;;19.60;99.90;;;;;;6245490;23;20020;-84
2022/07/11 12:58:18;;;;;;;1.02;0.55;;;19.60;99.90;;;;;;6245411;23;20050;-83
2022/07/11 13:00:58;;;;;;;1.02;0.60;;;19.70;99.90;;;;;;6244940;22;20008;-84
2022/07/11 13:03:34;;;;;;;3.15;0.60;;;19.70;99.90;;;;;;6219823;23;20062;-84
2022/07/11 13:06:02;;;;;;;1.10;0.80;;;19.80;99.90;;;;;;6220214;23;20070;-83
2022/07/11 13:08:47;;;;;;;1.15;0.60;;;19.80;99.90;;;;;;6245409;23;20012;-85
2022/07/11 13:11:19;;;;;;;1.30;0.90;;;19.80;99.90;;;;;;6245115;22;20019;-84
2022/07/11 13:13:47;;;;;;;1.20;0.75;;;19.90;99.90;;;;;;6220170;23;20533;-85
2022/07/11 13:16:14;;;;;;;5.50;0.95;;;19.90;99.90;;;;;;6245073;23;20016;-84
2022/07/11 13:18:39;;;;;;;0.98;0.45;;;20.00;99.90;;;;;;6245387;23;20081;-84
2022/07/11 13:21:08;;;;;;;0.60;0.50;;;20.00;99.90;;;;;;6245040;22;20016;-84
2022/07/11 13:23:35;;;;;;;1.85;0.50;;;20.20;99.90;;;;;;6245080;23;20066;-84
2022/07/11 13:26:02;;;;;;;0.93;0.50;;;20.20;99.90;;;;;;6245311;23;20063;-82
2022/07/11 13:28:28;;;;;;;2.15;0.95;;;20.30;99.90;;;;;;6245223;23;20410;-84
2022/07/11 13:30:54;;;;;;;2.25;0.50;;;20.30;99.90;;;;;;6220507;23;20016;-84
2022/07/11 13:33:20;;;;;;;0.95;0.45;;;20.40;99.90;;;;;;6245009;23;20334;-84
2022/07/11 13:35:47;;;;;;;0.80;0.50;;;20.40;99.90;;;;;;6244676;23;20143;-83
2022/07/11 13:38:13;;;;;;;1.95;0.40;;;20.40;99.90;;;;;;6245067;23;20458;-84
2022/07/11 13:40:39;;;;;;;1.77;0.40;;;20.50;99.90;;;;;;6245763;22;20019;-84
2022/07/11 13:43:05;;;;;;;0.70;0.40;;;20.60;99.90;;;;;;6245704;23;20016;-83
2022/07/11 13:45:31;;;;;;;1.08;0.60;;;20.60;99.90;;;;;;6271293;22;20346;-85
2022/07/11 13:47:57;;;;;;;1.38;0.60;;;20.60;99.90;;;;;;6248921;23;20008;-83
2022/07/11 13:50:23;;;;;;;0.98;0.70;;;20.60;99.90;;;;;;6249049;22;20016;-84
2022/07/11 13:52:50;;;;;;;0.88;0.55;;;20.50;99.90;;;;;;6221599;23;20016;-84
2022/07/11 13:55:22;;;;;;;1.17;0.90;;;20.40;99.90;;;;;;6249088;22;20012;-84
2022/07/11 13:57:51;;;;;;;2.53;0.90;;;20.30;99.90;;;;;;6246765;23;20016;-84
2022/07/11 14:00:18;;;;;;;1.45;0.93;;;20.30;99.90;;;;;;6249125;22;20343;-83
2022/07/11 14:02:45;;;;;;;1.58;0.90;;;20.20;99.90;;;;;;6246475;23;20020;-84
2022/07/11 14:05:10;;;;;;;3.15;1.00;;;20.20;99.90;;;;;;6248642;23;20058;-85
2022/07/11 14:07:37;;;;;;;2.97;1.10;;;20.20;99.90;;;;;;6221290;23;20058;-84
2022/07/11 14:10:04;;;;;;;1.40;1.00;;;20.10;99.90;;;;;;6248119;22;20012;-85
2022/07/11 14:12:31;;;;;;;1.73;0.75;;;20.00;99.90;;;;;;6248746;22;20329;-84
2022/07/11 14:14:57;;;;;;;1.00;0.70;;;20.00;99.90;;;;;;6246695;23;20020;-84
2022/07/11 14:17:25;;;;;;;1.70;0.70;;;20.10;99.90;;;;;;6248358;22;20038;-85
2022/07/11 14:19:54;;;;;;;4.07;1.00;;;20.20;99.90;;;;;;6222835;23;20306;-84
2022/07/11 14:22:20;;;;;;;1.40;0.93;;;20.40;99.90;;;;;;6246473;22;20074;-84
2022/07/11 14:24:46;;;;;;;1.08;0.73;;;20.40;99.90;;;;;;6246293;23;20012;-82
2022/07/11 14:27:13;;;;;;;3.47;1.00;;;20.40;99.90;;;;;;6248505;23;20019;-84
2022/07/11 14:29:43;;;;;;;2.22;0.90;;;20.40;99.90;;;;;;6221254;23;20323;-83
2022/07/11 14:32:11;;;;;;;1.80;0.95;;;20.50;99.90;;;;;;6246300;22;20019;-83
2022/07/11 14:34:37;;;;;;;4.13;0.90;;;20.50;99.90;;;;;;6246701;23;20012;-84
2022/07/11 14:37:04;;;;;;;2.25;0.70;;;20.70;99.90;;;;;;6246911;23;20017;-85
2022/07/11 14:39:31;;;;;;;1.65;0.90;;;20.70;99.90;;;;;;6246693;23;20035;-84
2022/07/11 14:41:57;;;;;;;2.95;0.65;;;20.70;99.90;;;;;;6246772;22;20334;-83
2022/07/11 14:44:27;;;;;;;2.15;0.75;;;20.80;99.90;;;;;;6248422;22;20008;-84
2022/07/11 14:46:54;;;;;;;1.58;0.60;;;21.00;99.90;;;;;;6246261;23;20012;-84
2022/07/11 14:49:20;;;;;;;0.82;0.43;;;21.00;99.90;;;;;;6246659;23;20008;-85
2022/07/11 14:51:45;;;;;;;1.08;0.68;;;21.00;99.90;;;;;;6245981;22;20023;-84
2022/07/11 14:54:12;;;;;;;4.53;0.70;;;21.00;99.90;;;;;;6247544;23;20038;-84
2022/07/11 14:56:38;;;;;;;1.25;0.70;;;21.10;99.90;;;;;;6248076;22;20008;-83
2022/07/11 14:59:04;;;;;;;1.05;0.70;;;21.10;99.90;;;;;;6247878;22;20429;-84
2022/07/11 15:01:30;;;;;;;1.10;0.70;;;21.10;99.90;;;;;;6248085;22;20083;-83
2022/07/11 15:03:56;;;;;;;1.48;0.75;;;21.00;99.90;;;;;;6246226;23;20011;-83
2022/07/11 15:12:20;;;;;;;2.47;0.88;;;20.90;99.90;;;;;;6246865;23;20078;-85
2022/07/11 15:14:39;;;;;;;2.00;0.55;;;21.00;99.90;;;;;;6247848;23;20083;-83
2022/07/11 15:17:05;;;;;;;1.70;0.70;;;20.90;99.90;;;;;;6246404;23;20346;-83
2022/07/11 15:19:31;;;;;;;1.40;0.80;;;20.80;99.90;;;;;;6246271;23;20461;-84
2022/07/11 15:21:56;;;;;;;2.08;0.98;;;20.80;99.90;;;;;;6247625;22;20060;-85
2022/07/11 15:24:22;;;;;;;1.67;0.70;;;20.80;99.90;;;;;;6246607;23;20369;-85
2022/07/11 15:26:48;;;;;;;3.80;1.30;;;20.80;99.90;;;;;;6246203;23;20046;-86
2022/07/11 15:29:14;;;;;;;1.40;1.00;;;20.80;99.90;;;;;;6222206;23;20521;-86
2022/07/11 15:31:40;;;;;;;1.30;0.80;;;20.80;99.90;;;;;;6246154;22;20015;-88
2022/07/11 15:34:05;;;;;;;2.63;1.35;;;20.80;99.90;;;;;;6246570;23;20047;-85
2022/07/11 15:36:31;;;;;;;3.20;1.10;;;20.80;99.90;;;;;;6246775;23;20008;-86
2022/07/11 15:38:57;;;;;;;3.22;1.75;;;20.80;99.90;;;;;;6248473;23;20536;-87
2022/07/11 15:41:22;;;;;;;2.00;1.40;;;20.70;99.90;;;;;;6246749;22;20027;-87
2022/07/11 15:43:48;;;;;;;1.80;1.30;;;20.80;99.90;;;;;;6248804;23;20358;-86
2022/07/11 15:46:14;;;;;;;3.78;1.80;;;20.80;99.90;;;;;;6246649;23;20016;-87
2022/07/11 15:48:40;;;;;;;1.85;1.20;;;20.80;99.90;;;;;;6248187;23;20058;-87
2022/07/11 15:51:05;;;;;;;2.83;1.10;;;20.80;99.90;;;;;;6247046;22;20015;-86
2022/07/11 15:53:32;;;;;;;2.10;1.05;;;20.90;99.90;;;;;;6221087;23;20027;-87
2022/07/11 15:55:58;;;;;;;1.85;0.90;;;21.00;99.90;;;;;;6248290;22;20047;-86
2022/07/11 15:58:26;;;;;;;2.40;1.00;;;21.20;99.90;;;;;;6246812;23;20012;-85
2022/07/11 16:00:52;;;;;;;1.50;1.10;;;21.20;99.90;;;;;;6220942;23;20016;-85
2022/07/11 16:03:21;;;;;;;1.85;1.00;;;21.30;99.90;;;;;;6248751;22;20004;-86
2022/07/11 16:06:00;;;;;;;1.25;0.73;;;21.20;99.90;;;;;;6222400;23;20015;-87
2022/07/11 16:08:25;;;;;;;1.55;0.95;;;21.20;99.90;;;;;;6220655;23;20016;-86
2022/07/11 16:10:51;;;;;;;1.30;0.90;;;21.10;99.90;;;;;;6248842;22;20366;-85
2022/07/11 16:13:18;;;;;;;2.05;1.40;;;21.10;99.90;;;;;;6246232;23;20012;-85